Time;durP1;ratioP1;P1;durP2;ratioP2;P2;SDS_P1;SDS_P2;PMS_P1;PMS_P2;Temp;Humidity;BMP_temperature;BMP_pressure;BME280_temperature;BME280_humidity;BME280_pressure;Samples;Min_cycle;Max_cycle;Signal;HPM_P1;HPM_P2
2021/09/20 00:01:36;;;;;;;14.50;13.50;;;12.10;99.90;;;;;;5032706;28;20460;-59
2021/09/20 00:04:03;;;;;;;15.03;13.93;;;12.10;99.90;;;;;;5033092;28;20452;-55
2021/09/20 00:06:29;;;;;;;15.83;14.83;;;12.00;99.90;;;;;;5032932;28;20529;-57
2021/09/20 00:08:56;;;;;;;14.40;13.43;;;12.00;99.90;;;;;;5032686;28;20464;-58
2021/09/20 00:11:23;;;;;;;15.20;13.80;;;11.90;99.90;;;;;;5032684;28;20451;-58
2021/09/20 00:13:50;;;;;;;15.20;14.10;;;11.90;99.90;;;;;;5032834;28;20437;-59
2021/09/20 00:16:17;;;;;;;14.40;13.43;;;11.90;99.90;;;;;;5032746;28;20487;-58
2021/09/20 00:18:45;;;;;;;15.00;14.10;;;11.80;99.90;;;;;;5032499;28;20997;-57
2021/09/20 00:21:12;;;;;;;14.93;14.03;;;11.70;99.90;;;;;;5032498;28;20512;-58
2021/09/20 00:23:38;;;;;;;15.43;14.23;;;11.70;99.90;;;;;;5032610;28;20441;-59
2021/09/20 00:26:05;;;;;;;15.33;14.23;;;11.60;99.90;;;;;;5031949;28;20445;-59
2021/09/20 00:28:32;;;;;;;15.23;14.03;;;11.60;99.90;;;;;;5032409;28;20485;-56
2021/09/20 00:30:59;;;;;;;13.47;12.57;;;11.50;99.90;;;;;;5032397;28;20472;-59
2021/09/20 00:33:25;;;;;;;14.13;12.93;;;11.50;99.90;;;;;;5032479;28;20453;-59
2021/09/20 00:35:54;;;;;;;13.80;12.90;;;11.50;99.90;;;;;;5032251;28;20456;-57
2021/09/20 00:38:20;;;;;;;15.73;14.53;;;11.50;99.90;;;;;;5032150;28;20477;-56
2021/09/20 00:40:47;;;;;;;14.07;12.87;;;11.50;99.90;;;;;;5032287;28;20821;-57
2021/09/20 00:43:14;;;;;;;14.77;13.67;;;11.40;99.90;;;;;;5032087;28;20449;-58
2021/09/20 00:45:40;;;;;;;15.03;13.93;;;11.40;99.90;;;;;;5031983;28;20445;-59
2021/09/20 00:48:07;;;;;;;14.93;13.73;;;11.40;99.90;;;;;;5031280;28;20480;-57
2021/09/20 00:50:35;;;;;;;15.00;13.90;;;11.40;99.90;;;;;;5032212;28;20452;-59
2021/09/20 00:53:03;;;;;;;12.90;11.90;;;11.30;99.90;;;;;;5031936;28;20453;-60
2021/09/20 00:55:30;;;;;;;14.03;13.10;;;11.30;99.90;;;;;;5032110;28;20931;-57
2021/09/20 00:57:57;;;;;;;16.63;14.80;;;11.30;99.90;;;;;;5031732;28;20461;-56
2021/09/20 01:00:25;;;;;;;14.07;13.10;;;11.20;99.90;;;;;;5032051;28;20449;-58
2021/09/20 01:02:52;;;;;;;14.43;13.43;;;11.20;99.90;;;;;;5031709;28;20449;-57
2021/09/20 01:05:18;;;;;;;14.53;13.30;;;11.20;99.90;;;;;;5031626;28;20460;-59
2021/09/20 01:07:45;;;;;;;15.70;14.40;;;11.10;99.90;;;;;;5031771;28;20532;-58
2021/09/20 01:10:13;;;;;;;17.00;15.30;;;11.10;99.90;;;;;;5031517;28;20445;-56
2021/09/20 01:12:40;;;;;;;13.33;12.33;;;11.10;99.90;;;;;;5031609;28;20453;-59
2021/09/20 01:15:08;;;;;;;14.57;13.47;;;11.10;99.90;;;;;;5031455;28;20453;-56
2021/09/20 01:17:35;;;;;;;14.37;13.10;;;11.00;99.90;;;;;;5031400;28;20441;-57
2021/09/20 01:20:03;;;;;;;14.80;13.60;;;11.00;99.90;;;;;;5031776;28;20480;-58
2021/09/20 01:22:30;;;;;;;15.33;14.20;;;11.00;99.90;;;;;;5031511;28;20504;-57
2021/09/20 01:24:58;;;;;;;16.07;14.87;;;11.00;99.90;;;;;;5031407;28;20449;-58
2021/09/20 01:27:25;;;;;;;15.43;14.40;;;10.90;99.90;;;;;;5031317;28;20491;-58
2021/09/20 01:29:52;;;;;;;16.20;15.00;;;10.80;99.90;;;;;;5031702;28;20816;-57
2021/09/20 01:32:19;;;;;;;16.10;14.90;;;10.80;99.90;;;;;;5031278;28;20449;-60
2021/09/20 01:34:45;;;;;;;16.17;14.97;;;10.80;99.90;;;;;;5031107;28;20476;-59
2021/09/20 01:37:12;;;;;;;14.20;13.10;;;10.70;99.90;;;;;;5031531;28;20449;-59
2021/09/20 01:39:40;;;;;;;15.57;14.30;;;10.70;99.90;;;;;;5031254;28;20484;-58
2021/09/20 01:42:10;;;;;;;15.63;14.43;;;10.70;99.90;;;;;;5031256;28;20440;-55
2021/09/20 01:44:37;;;;;;;16.30;15.10;;;10.60;99.90;;;;;;5031365;28;20909;-59
2021/09/20 01:47:04;;;;;;;16.30;15.00;;;10.60;99.90;;;;;;5031329;28;20449;-58
2021/09/20 01:49:31;;;;;;;15.13;13.93;;;10.60;99.90;;;;;;5031370;28;20888;-59
2021/09/20 01:51:59;;;;;;;15.53;14.33;;;10.60;99.90;;;;;;5031185;28;20820;-59
2021/09/20 01:54:26;;;;;;;16.20;14.80;;;10.50;99.90;;;;;;5030751;28;20441;-55
2021/09/20 01:56:53;;;;;;;15.47;14.20;;;10.60;99.90;;;;;;5031364;28;20451;-58
2021/09/20 01:59:21;;;;;;;14.77;13.47;;;10.60;99.90;;;;;;5033289;28;20476;-59
2021/09/20 02:01:48;;;;;;;14.60;13.20;;;10.50;99.90;;;;;;5035048;28;20965;-57
2021/09/20 02:04:15;;;;;;;16.40;15.10;;;10.50;99.90;;;;;;5035034;28;20445;-58
2021/09/20 02:06:42;;;;;;;16.27;14.77;;;10.50;99.90;;;;;;5035226;28;20939;-57
2021/09/20 02:09:11;;;;;;;16.00;14.60;;;10.40;99.90;;;;;;5034984;28;20899;-58
2021/09/20 02:11:38;;;;;;;15.97;14.67;;;10.40;99.90;;;;;;5035025;28;20448;-58
2021/09/20 02:14:05;;;;;;;16.60;15.30;;;10.40;99.90;;;;;;5034808;28;20456;-54
2021/09/20 02:16:33;;;;;;;15.10;13.93;;;10.30;99.90;;;;;;5034952;28;20453;-59
2021/09/20 02:19:00;;;;;;;15.80;14.60;;;10.30;99.90;;;;;;5034925;28;20859;-58
2021/09/20 02:21:26;;;;;;;15.37;13.97;;;10.30;99.90;;;;;;5034731;28;20452;-56
2021/09/20 02:23:53;;;;;;;14.53;13.23;;;10.30;99.90;;;;;;5034726;28;20649;-56
2021/09/20 02:26:20;;;;;;;14.83;13.40;;;10.20;99.90;;;;;;5034816;28;20448;-56
2021/09/20 02:28:47;;;;;;;16.43;14.93;;;10.20;99.90;;;;;;5034709;28;20846;-59
2021/09/20 02:31:14;;;;;;;15.87;14.67;;;10.10;99.90;;;;;;5034585;28;20444;-58
2021/09/20 02:33:42;;;;;;;15.97;14.63;;;10.10;99.90;;;;;;5034457;28;20460;-58
2021/09/20 02:36:09;;;;;;;15.07;13.80;;;10.10;99.90;;;;;;5034615;28;20445;-54
2021/09/20 02:38:36;;;;;;;14.50;13.40;;;10.10;99.90;;;;;;5034584;28;20475;-59
2021/09/20 02:41:04;;;;;;;15.37;14.07;;;10.10;99.90;;;;;;5034494;28;20452;-59
2021/09/20 02:43:31;;;;;;;14.87;13.57;;;10.00;99.90;;;;;;5034224;28;20445;-59
2021/09/20 02:45:58;;;;;;;15.07;13.77;;;10.00;99.90;;;;;;5034580;28;20449;-59
2021/09/20 02:48:24;;;;;;;16.63;15.20;;;10.00;99.90;;;;;;5033636;28;20492;-58
2021/09/20 02:50:53;;;;;;;16.27;14.93;;;10.00;99.90;;;;;;5034421;28;20449;-58
2021/09/20 02:53:19;;;;;;;16.37;14.80;;;10.00;99.90;;;;;;5034254;28;20503;-55
2021/09/20 02:55:46;;;;;;;15.73;14.23;;;10.00;99.90;;;;;;5034391;28;20453;-59
2021/09/20 02:58:13;;;;;;;18.47;14.30;;;9.90;99.90;;;;;;5034008;28;20469;-56
2021/09/20 03:00:40;;;;;;;15.20;13.77;;;9.90;99.90;;;;;;5034229;28;20456;-57
2021/09/20 03:03:07;;;;;;;13.80;12.50;;;9.90;99.90;;;;;;5033913;28;20449;-58
2021/09/20 03:05:35;;;;;;;17.10;15.30;;;9.90;99.90;;;;;;5034164;28;20452;-60
2021/09/20 03:08:04;;;;;;;14.57;13.47;;;9.90;99.90;;;;;;5033668;28;20523;-60
2021/09/20 03:10:31;;;;;;;15.00;13.70;;;9.80;99.90;;;;;;5033223;28;20452;-58
2021/09/20 03:12:58;;;;;;;15.40;14.03;;;9.80;99.90;;;;;;5033833;28;20448;-55
2021/09/20 03:15:25;;;;;;;16.47;15.00;;;9.80;99.90;;;;;;5033923;28;20453;-58
2021/09/20 03:17:51;;;;;;;15.07;13.67;;;9.80;99.90;;;;;;5033652;28;20472;-60
2021/09/20 03:20:19;;;;;;;14.30;13.10;;;9.80;99.90;;;;;;5033685;28;20449;-58
2021/09/20 03:22:46;;;;;;;14.63;13.33;;;9.80;99.90;;;;;;5033567;28;20453;-59
2021/09/20 03:25:14;;;;;;;15.97;14.47;;;9.80;99.90;;;;;;5033814;28;20445;-61
2021/09/20 03:27:42;;;;;;;13.67;12.37;;;9.80;99.90;;;;;;5033307;28;20990;-59
2021/09/20 03:30:11;;;;;;;14.90;13.10;;;9.80;99.90;;;;;;5033741;28;20441;-56
2021/09/20 03:32:38;;;;;;;16.20;14.60;;;9.80;99.90;;;;;;5033494;28;20440;-54
2021/09/20 03:35:06;;;;;;;13.90;12.70;;;9.80;99.90;;;;;;5033472;28;20452;-58
2021/09/20 03:37:33;;;;;;;14.90;13.33;;;9.80;99.90;;;;;;5033244;28;20437;-59
2021/09/20 03:40:00;;;;;;;15.40;13.80;;;9.70;99.90;;;;;;5034005;28;20449;-51
2021/09/20 03:42:28;;;;;;;14.27;13.00;;;9.80;99.90;;;;;;5033282;28;20946;-58
2021/09/20 03:44:55;;;;;;;15.13;13.33;;;9.70;99.90;;;;;;5033404;28;20816;-57
2021/09/20 03:47:21;;;;;;;15.03;13.53;;;9.70;99.90;;;;;;5033016;28;20445;-52
2021/09/20 03:49:48;;;;;;;15.53;13.13;;;9.70;99.90;;;;;;5033248;28;20484;-51
2021/09/20 03:52:15;;;;;;;15.20;12.70;;;9.70;99.90;;;;;;5033300;28;21101;-51
2021/09/20 03:54:42;;;;;;;13.30;12.20;;;9.70;99.90;;;;;;5033558;28;20441;-51
2021/09/20 03:57:08;;;;;;;12.93;11.73;;;9.60;99.90;;;;;;5033106;28;20449;-50
2021/09/20 03:59:37;;;;;;;17.60;13.47;;;9.60;99.90;;;;;;5033030;28;20465;-57
2021/09/20 04:02:04;;;;;;;13.00;11.90;;;9.70;99.90;;;;;;5032872;28;20453;-52
2021/09/20 04:04:31;;;;;;;14.00;12.80;;;9.70;99.90;;;;;;5033002;28;20945;-51
2021/09/20 04:07:01;;;;;;;14.00;12.70;;;9.70;99.90;;;;;;5032797;28;20445;-57
2021/09/20 04:09:27;;;;;;;14.00;12.90;;;9.70;99.90;;;;;;5032861;28;20531;-51
2021/09/20 04:11:54;;;;;;;14.70;13.30;;;9.60;99.90;;;;;;5032696;28;20440;-53
2021/09/20 04:14:21;;;;;;;14.23;12.90;;;9.60;99.90;;;;;;5032908;28;20452;-51
2021/09/20 04:16:49;;;;;;;15.27;13.80;;;9.60;99.90;;;;;;5032565;28;20445;-55
2021/09/20 04:19:15;;;;;;;15.53;14.13;;;9.70;99.90;;;;;;5032635;28;20453;-56
2021/09/20 04:21:42;;;;;;;19.20;12.63;;;9.60;99.90;;;;;;5032506;28;20449;-57
2021/09/20 04:24:10;;;;;;;14.00;12.67;;;9.60;99.90;;;;;;5032736;28;20449;-51
2021/09/20 04:26:37;;;;;;;14.60;13.10;;;9.60;99.90;;;;;;5032517;28;20445;-52
2021/09/20 04:29:03;;;;;;;14.57;13.07;;;9.60;99.90;;;;;;5032419;28;20489;-51
2021/09/20 04:31:30;;;;;;;14.60;13.17;;;9.50;99.90;;;;;;5032237;28;20452;-51
2021/09/20 04:33:58;;;;;;;16.00;13.13;;;9.50;99.90;;;;;;5032374;28;20441;-54
2021/09/20 04:36:25;;;;;;;13.83;12.57;;;9.50;99.90;;;;;;5032211;28;20452;-54
2021/09/20 04:38:52;;;;;;;15.90;14.20;;;9.50;99.90;;;;;;5032330;28;20481;-51
2021/09/20 04:41:18;;;;;;;14.20;12.73;;;9.50;99.90;;;;;;5032175;28;21242;-51
2021/09/20 04:43:45;;;;;;;14.50;13.00;;;9.40;99.90;;;;;;5032186;28;20452;-59
2021/09/20 04:46:12;;;;;;;15.40;13.90;;;9.40;99.90;;;;;;5031582;28;20448;-55
2021/09/20 04:48:38;;;;;;;15.80;14.23;;;9.40;99.90;;;;;;5031760;28;21016;-52
2021/09/20 04:51:06;;;;;;;15.43;13.80;;;9.40;99.90;;;;;;5031982;28;20862;-55
2021/09/20 04:53:33;;;;;;;16.20;14.50;;;9.40;99.90;;;;;;5031244;28;20445;-54
2021/09/20 04:56:00;;;;;;;16.20;14.80;;;9.40;99.90;;;;;;5031832;28;20452;-63
2021/09/20 04:58:27;;;;;;;16.87;14.80;;;9.40;99.90;;;;;;5031996;28;20997;-58
2021/09/20 05:00:53;;;;;;;15.77;14.27;;;9.40;99.90;;;;;;5032094;28;20449;-66
2021/09/20 05:03:20;;;;;;;20.03;15.97;;;9.40;99.90;;;;;;5031775;28;20480;-58
2021/09/20 05:05:47;;;;;;;14.07;12.67;;;9.40;99.90;;;;;;5031838;28;20448;-55
2021/09/20 05:08:17;;;;;;;15.30;13.73;;;9.40;99.90;;;;;;5031717;28;20457;-57
2021/09/20 05:10:44;;;;;;;14.23;12.73;;;9.50;99.90;;;;;;5031862;28;20934;-56
2021/09/20 05:13:11;;;;;;;14.00;12.57;;;9.50;99.90;;;;;;5031559;28;20453;-57
2021/09/20 05:15:38;;;;;;;15.20;12.87;;;9.50;99.90;;;;;;5031695;28;20440;-58
2021/09/20 05:18:04;;;;;;;16.30;14.70;;;9.50;99.90;;;;;;5031601;28;20578;-54
2021/09/20 05:20:31;;;;;;;16.87;15.07;;;9.50;99.90;;;;;;5031553;28;20445;-61
2021/09/20 05:22:58;;;;;;;21.87;16.30;;;9.50;99.90;;;;;;5031419;28;20453;-54
2021/09/20 05:25:26;;;;;;;16.70;13.60;;;9.60;99.90;;;;;;5031646;28;20459;-58
2021/09/20 05:27:52;;;;;;;18.40;14.90;;;9.70;99.90;;;;;;5031488;28;20461;-59
2021/09/20 05:30:20;;;;;;;13.60;11.90;;;9.80;99.90;;;;;;5031435;28;20850;-59
2021/09/20 05:32:46;;;;;;;15.03;13.50;;;9.90;99.90;;;;;;5031132;28;20448;-55
2021/09/20 05:35:15;;;;;;;14.97;12.17;;;10.00;99.90;;;;;;5031284;28;20449;-56
2021/09/20 05:37:45;;;;;;;15.57;11.67;;;10.10;99.90;;;;;;5031160;28;20481;-61
2021/09/20 05:40:12;;;;;;;14.87;12.03;;;10.20;99.90;;;;;;5031563;28;21011;-61
2021/09/20 05:42:41;;;;;;;12.67;11.07;;;10.40;99.90;;;;;;5031031;28;20449;-57
2021/09/20 05:45:09;;;;;;;14.03;12.00;;;10.50;99.90;;;;;;5031332;28;20470;-60
2021/09/20 05:47:35;;;;;;;11.70;10.57;;;10.70;99.90;;;;;;5031251;28;20452;-54
2021/09/20 05:50:02;;;;;;;13.70;10.80;;;10.80;99.90;;;;;;5031171;28;20476;-61
2021/09/20 05:52:29;;;;;;;16.50;10.50;;;11.00;99.90;;;;;;5031153;28;20827;-56
2021/09/20 05:54:55;;;;;;;13.10;11.10;;;11.20;99.90;;;;;;5031268;28;20445;-59
2021/09/20 05:57:22;;;;;;;12.77;11.30;;;11.30;99.90;;;;;;5031213;28;20448;-58
2021/09/20 05:59:50;;;;;;;11.10;10.00;;;11.50;99.90;;;;;;5031036;28;20445;-58
2021/09/20 06:02:17;;;;;;;11.27;10.07;;;11.60;99.90;;;;;;5030890;28;20962;-58
2021/09/20 06:04:44;;;;;;;13.10;11.70;;;11.70;99.90;;;;;;5031191;28;20449;-54
2021/09/20 06:07:11;;;;;;;12.00;10.80;;;11.90;99.90;;;;;;5031084;28;20939;-62
2021/09/20 06:09:38;;;;;;;13.63;12.33;;;11.90;99.90;;;;;;5031039;28;20484;-57
2021/09/20 06:12:05;;;;;;;12.57;11.37;;;12.00;99.90;;;;;;5030940;28;20449;-54
2021/09/20 06:14:33;;;;;;;13.63;12.23;;;12.20;99.90;;;;;;5030941;28;20452;-58
2021/09/20 06:17:01;;;;;;;12.90;11.70;;;12.30;99.90;;;;;;5031089;28;20453;-59
2021/09/20 06:19:28;;;;;;;14.67;13.47;;;12.30;99.90;;;;;;5031068;28;20457;-58
2021/09/20 06:21:54;;;;;;;14.00;12.83;;;12.50;99.90;;;;;;5030981;28;20452;-57
2021/09/20 06:24:21;;;;;;;18.97;12.90;;;12.60;99.90;;;;;;5031149;28;20441;-58
2021/09/20 06:26:48;;;;;;;18.20;14.30;;;12.70;99.90;;;;;;5030987;28;20441;-59
2021/09/20 06:29:15;;;;;;;14.10;13.17;;;12.80;99.90;;;;;;5031005;28;20484;-58
2021/09/20 06:31:42;;;;;;;14.83;13.40;;;12.90;99.90;;;;;;5030583;28;20798;-60
2021/09/20 06:34:10;;;;;;;15.43;14.13;;;13.10;99.90;;;;;;5031055;28;20456;-59
2021/09/20 06:36:37;;;;;;;16.33;15.10;;;13.30;99.90;;;;;;5030929;28;20512;-57
2021/09/20 06:39:04;;;;;;;16.77;15.47;;;13.30;99.90;;;;;;5030515;28;20516;-61
2021/09/20 06:41:31;;;;;;;17.03;15.53;;;13.50;99.90;;;;;;5030763;28;20444;-57
2021/09/20 06:43:57;;;;;;;16.83;15.43;;;13.50;99.90;;;;;;5030840;28;20456;-57
2021/09/20 06:46:25;;;;;;;16.07;14.57;;;13.70;99.90;;;;;;5032872;28;20456;-55
2021/09/20 06:48:52;;;;;;;17.00;15.90;;;13.80;99.90;;;;;;5034287;28;20476;-58
2021/09/20 06:51:20;;;;;;;17.60;16.30;;;13.90;99.90;;;;;;5034227;28;20460;-59
2021/09/20 06:53:48;;;;;;;19.80;18.30;;;14.00;99.90;;;;;;5034419;28;20448;-59
2021/09/20 06:56:15;;;;;;;18.23;16.83;;;14.00;99.90;;;;;;5034294;28;20448;-61
2021/09/20 06:58:41;;;;;;;18.57;17.37;;;14.10;99.90;;;;;;5034153;28;20465;-57
2021/09/20 07:01:08;;;;;;;17.93;16.63;;;14.20;99.90;;;;;;5034034;28;20502;-59
2021/09/20 07:03:35;;;;;;;20.60;18.90;;;14.30;99.90;;;;;;5034079;28;20456;-59
2021/09/20 07:06:02;;;;;;;18.93;17.53;;;14.40;99.90;;;;;;5034117;28;20499;-57
2021/09/20 07:08:30;;;;;;;18.30;17.10;;;14.60;99.90;;;;;;5033994;28;20500;-58
2021/09/20 07:10:57;;;;;;;18.67;17.43;;;14.70;99.90;;;;;;5033935;28;20483;-57
2021/09/20 07:13:24;;;;;;;18.93;17.63;;;14.80;99.90;;;;;;5033961;28;20456;-58
2021/09/20 07:15:50;;;;;;;19.63;18.23;;;14.90;99.90;;;;;;5033883;28;20445;-59
2021/09/20 07:18:17;;;;;;;20.70;19.17;;;15.00;99.90;;;;;;5033888;28;20461;-56
2021/09/20 07:20:44;;;;;;;18.60;17.50;;;15.00;99.90;;;;;;5033749;28;20607;-59
2021/09/20 07:23:11;;;;;;;19.87;18.37;;;15.20;99.90;;;;;;5033595;28;20971;-57
2021/09/20 07:25:40;;;;;;;19.77;18.43;;;15.20;99.90;;;;;;5033760;28;20452;-58
2021/09/20 07:28:07;;;;;;;22.90;21.00;;;15.30;99.90;;;;;;5033545;28;20469;-58
2021/09/20 07:30:34;;;;;;;20.80;19.40;;;15.40;99.90;;;;;;5033654;28;20481;-57
2021/09/20 07:33:00;;;;;;;20.40;19.00;;;15.50;99.90;;;;;;5033342;28;20448;-56
2021/09/20 07:35:28;;;;;;;21.00;19.60;;;15.70;99.90;;;;;;5033555;28;20441;-58
2021/09/20 07:37:56;;;;;;;21.50;19.87;;;15.80;99.90;;;;;;5033336;28;20476;-63
2021/09/20 07:40:24;;;;;;;20.40;19.10;;;16.00;99.90;;;;;;5033471;28;20446;-60
2021/09/20 07:42:54;;;;;;;20.83;19.27;;;16.30;99.90;;;;;;5033215;28;20445;-58
2021/09/20 07:45:20;;;;;;;21.13;19.73;;;16.40;99.90;;;;;;5033329;28;20814;-57
2021/09/20 07:47:47;;;;;;;20.23;18.93;;;16.50;99.90;;;;;;5033283;28;20464;-60
2021/09/20 07:50:15;;;;;;;22.67;21.13;;;16.50;99.90;;;;;;5033269;28;20488;-60
2021/09/20 07:52:42;;;;;;;21.67;20.37;;;16.60;99.90;;;;;;5032961;28;20449;-58
2021/09/20 07:55:09;;;;;;;22.33;21.03;;;16.80;99.90;;;;;;5033140;28;20449;-57
2021/09/20 07:57:36;;;;;;;22.63;21.43;;;16.90;99.90;;;;;;5032871;28;20469;-58
2021/09/20 08:00:06;;;;;;;21.70;20.10;;;17.00;99.90;;;;;;5033098;28;20443;-57
2021/09/20 08:02:33;;;;;;;22.63;21.27;;;17.10;99.90;;;;;;5032879;28;20441;-59
2021/09/20 08:04:59;;;;;;;22.23;20.80;;;17.20;99.90;;;;;;5033203;28;20456;-60
2021/09/20 08:07:26;;;;;;;22.23;21.03;;;17.30;99.90;;;;;;5032870;28;20827;-62
2021/09/20 08:09:53;;;;;;;22.07;20.83;;;17.40;99.90;;;;;;5033015;28;20507;-59
2021/09/20 08:12:19;;;;;;;22.73;21.23;;;17.30;99.90;;;;;;5032794;28;20449;-62
2021/09/20 08:14:46;;;;;;;22.47;20.97;;;17.50;99.90;;;;;;5033115;28;20444;-61
2021/09/20 08:17:14;;;;;;;21.77;20.67;;;17.70;99.90;;;;;;5032812;28;20445;-59
2021/09/20 08:19:41;;;;;;;21.80;20.63;;;17.70;99.90;;;;;;5033168;28;20798;-60
2021/09/20 08:22:09;;;;;;;23.27;21.80;;;17.80;99.90;;;;;;5032461;28;20922;-57
2021/09/20 08:24:36;;;;;;;22.37;21.13;;;17.90;99.90;;;;;;5032705;28;20488;-58
2021/09/20 08:27:03;;;;;;;21.50;20.40;;;18.00;99.90;;;;;;5032803;28;20445;-56
2021/09/20 08:29:30;;;;;;;21.70;20.60;;;18.00;99.90;;;;;;5032405;28;20488;-57
2021/09/20 08:31:56;;;;;;;21.50;20.30;;;17.90;99.90;;;;;;5032404;28;20447;-59
2021/09/20 08:34:24;;;;;;;21.37;20.27;;;17.90;99.90;;;;;;5032506;28;20445;-55
2021/09/20 08:36:51;;;;;;;20.90;19.90;;;18.00;99.90;;;;;;5032533;28;20449;-60
2021/09/20 08:39:18;;;;;;;21.80;20.70;;;18.10;99.90;;;;;;5032428;28;21023;-60
2021/09/20 08:41:45;;;;;;;21.20;20.17;;;18.10;99.90;;;;;;5032197;28;20457;-62
2021/09/20 08:44:12;;;;;;;21.83;20.73;;;18.10;99.90;;;;;;5032279;28;20453;-58
2021/09/20 08:46:40;;;;;;;21.40;20.30;;;18.30;99.90;;;;;;5032227;28;20962;-57
2021/09/20 08:49:07;;;;;;;20.90;19.90;;;18.50;99.90;;;;;;5032096;28;20966;-57
2021/09/20 08:51:35;;;;;;;21.53;20.40;;;18.60;99.90;;;;;;5031969;28;20432;-66
2021/09/20 08:54:02;;;;;;;21.00;20.00;;;18.70;99.90;;;;;;5032094;28;20441;-56
2021/09/20 08:56:29;;;;;;;21.13;20.03;;;18.80;99.90;;;;;;5032313;28;20444;-59
2021/09/20 08:58:56;;;;;;;22.07;20.93;;;18.90;99.90;;;;;;5031966;28;20471;-57
2021/09/20 09:01:24;;;;;;;23.13;21.93;;;19.00;99.90;;;;;;5031662;28;20441;-58
2021/09/20 09:03:50;;;;;;;21.37;20.47;;;19.30;99.20;;;;;;5031881;28;20472;-61
2021/09/20 09:06:30;;;;;;;21.23;20.20;;;19.30;99.20;;;;;;5032178;28;20799;-54
2021/09/20 09:08:58;;;;;;;21.53;20.53;;;19.30;98.80;;;;;;5031204;28;20831;-58
2021/09/20 09:11:28;;;;;;;22.43;21.43;;;19.50;97.80;;;;;;5031674;28;20480;-61
2021/09/20 09:13:58;;;;;;;21.87;20.53;;;19.70;96.80;;;;;;5031847;28;20472;-58
2021/09/20 09:16:27;;;;;;;22.00;20.90;;;19.60;96.80;;;;;;5031675;28;20452;-60
2021/09/20 09:19:05;;;;;;;21.83;20.73;;;19.90;95.70;;;;;;5031908;28;20496;-59
2021/09/20 09:21:34;;;;;;;22.57;21.40;;;19.80;95.60;;;;;;5031618;28;20447;-57
2021/09/20 09:24:04;;;;;;;20.93;19.97;;;20.00;95.20;;;;;;5031772;28;20448;-63
2021/09/20 09:26:31;;;;;;;21.43;20.43;;;20.10;94.00;;;;;;5031764;28;20451;-62
2021/09/20 09:29:13;;;;;;;20.90;19.83;;;20.10;94.10;;;;;;5031689;28;20540;-61
2021/09/20 09:31:42;;;;;;;22.47;21.37;;;20.20;93.40;;;;;;5031311;28;20494;-60
2021/09/20 09:34:18;;;;;;;20.10;19.20;;;20.00;92.30;;;;;;5030774;28;20451;-57
2021/09/20 09:36:46;;;;;;;21.27;20.37;;;20.00;91.60;;;;;;5031574;28;20556;-61
2021/09/20 09:39:15;;;;;;;20.80;19.90;;;20.20;91.10;;;;;;5031861;28;20849;-59
2021/09/20 09:41:44;;;;;;;21.00;20.00;;;20.20;91.50;;;;;;5031183;28;20452;-63
2021/09/20 09:44:13;;;;;;;20.23;19.33;;;20.60;93.10;;;;;;5031086;28;20452;-59
2021/09/20 09:46:42;;;;;;;21.67;20.60;;;20.70;90.60;;;;;;5031513;28;20492;-61
2021/09/20 09:49:13;;;;;;;20.90;20.00;;;21.00;90.40;;;;;;5031724;28;20469;-60
2021/09/20 09:51:54;;;;;;;21.53;20.63;;;21.40;87.80;;;;;;5030853;28;20484;-61
2021/09/20 09:54:27;;;;;;;21.73;20.77;;;21.30;85.10;;;;;;5030815;28;20459;-59
2021/09/20 09:57:12;;;;;;;21.00;19.90;;;21.20;82.40;;;;;;5031366;28;20927;-58
2021/09/20 09:59:39;;;;;;;21.83;20.83;;;21.50;83.20;;;;;;5031179;28;20464;-62
2021/09/20 10:02:17;;;;;;;21.23;20.23;;;21.60;81.50;;;;;;5031222;28;20449;-62
2021/09/20 10:04:53;;;;;;;20.23;19.33;;;21.70;77.70;;;;;;5031079;28;20476;-62
2021/09/20 10:07:26;;;;;;;20.77;19.97;;;22.20;74.60;;;;;;5030914;28;20541;-59
2021/09/20 10:09:57;;;;;;;20.90;20.00;;;22.20;69.90;;;;;;5030748;28;20481;-60
2021/09/20 10:12:26;;;;;;;22.77;21.80;;;22.30;71.80;;;;;;5030723;28;20562;-58
2021/09/20 10:14:55;;;;;;;22.23;21.23;;;22.50;73.30;;;;;;5031120;28;20788;-55
2021/09/20 10:17:23;;;;;;;21.50;20.60;;;22.60;71.30;;;;;;5031405;28;20535;-55
2021/09/20 10:19:50;;;;;;;21.90;20.90;;;22.70;69.40;;;;;;5033055;28;20472;-58
2021/09/20 10:22:19;;;;;;;21.83;20.93;;;22.50;69.20;;;;;;5035734;28;20464;-64
2021/09/20 10:24:48;;;;;;;22.13;20.97;;;22.40;68.90;;;;;;5035640;28;20441;-61
2021/09/20 10:27:18;;;;;;;22.10;21.10;;;22.50;68.30;;;;;;5035238;28;20968;-65
2021/09/20 10:29:49;;;;;;;22.73;21.57;;;22.50;69.40;;;;;;5035352;28;20440;-58
2021/09/20 10:32:16;;;;;;;23.07;21.87;;;22.70;67.20;;;;;;5035463;28;20425;-61
2021/09/20 10:34:43;;;;;;;22.37;21.03;;;23.00;64.00;;;;;;5035076;28;20449;-58
2021/09/20 10:37:12;;;;;;;23.17;22.07;;;23.30;63.60;;;;;;5035178;28;20463;-66
2021/09/20 10:39:57;;;;;;;22.17;21.17;;;23.20;63.90;;;;;;5035104;28;20530;-61
2021/09/20 10:42:48;;;;;;;22.00;21.00;;;23.50;60.70;;;;;;5034809;28;20444;-61
2021/09/20 10:45:52;;;;;;;22.10;21.10;;;23.60;61.00;;;;;;5034877;28;20448;-60
2021/09/20 10:48:38;;;;;;;21.53;20.70;;;23.80;60.30;;;;;;5034975;28;20551;-60
2021/09/20 10:51:20;;;;;;;22.77;21.87;;;23.60;58.80;;;;;;5034831;28;20480;-60
2021/09/20 10:53:47;;;;;;;22.20;21.23;;;23.80;58.60;;;;;;5034684;28;20800;-62
2021/09/20 10:56:23;;;;;;;21.57;20.73;;;23.80;58.30;;;;;;5034869;28;20633;-58
2021/09/20 10:59:14;;;;;;;22.10;21.20;;;23.70;57.20;;;;;;5034669;28;20468;-59
2021/09/20 11:01:41;;;;;;;22.67;21.47;;;23.70;57.10;;;;;;5034704;28;20437;-59
2021/09/20 11:04:15;;;;;;;21.17;20.17;;;23.70;57.40;;;;;;5034876;28;20856;-57
2021/09/20 11:06:43;;;;;;;20.87;20.00;;;23.60;56.30;;;;;;5034668;28;20449;-60
2021/09/20 11:09:33;;;;;;;22.43;21.53;;;23.60;57.00;;;;;;5034514;28;20493;-59
2021/09/20 11:12:09;;;;;;;23.50;22.27;;;23.80;56.50;;;;;;5034340;28;20484;-59
2021/09/20 11:14:44;;;;;;;22.30;21.50;;;24.40;54.60;;;;;;5034651;28;20440;-58
2021/09/20 11:17:29;;;;;;;22.07;21.17;;;25.20;55.20;;;;;;5034409;28;20946;-59
2021/09/20 11:19:59;;;;;;;22.17;21.27;;;25.80;52.80;;;;;;5034407;28;20484;-64
2021/09/20 11:22:28;;;;;;;22.00;21.10;;;25.80;52.70;;;;;;5034263;28;20440;-65
2021/09/20 11:25:02;;;;;;;22.67;21.70;;;25.80;51.60;;;;;;5034191;28;20449;-58
2021/09/20 11:27:31;;;;;;;23.23;22.20;;;26.20;51.00;;;;;;5034110;28;20445;-59
2021/09/20 11:30:02;;;;;;;22.07;21.17;;;26.70;49.00;;;;;;5033880;28;20445;-58
2021/09/20 11:32:29;;;;;;;22.43;21.33;;;27.00;46.80;;;;;;5033453;28;20448;-58
2021/09/20 11:34:58;;;;;;;23.10;22.10;;;26.60;47.50;;;;;;5034237;28;20491;-59
2021/09/20 11:37:27;;;;;;;23.70;22.70;;;26.30;48.20;;;;;;5033727;28;20448;-60
2021/09/20 11:39:55;;;;;;;24.03;22.83;;;26.30;48.40;;;;;;5034150;28;20449;-59
2021/09/20 11:42:25;;;;;;;25.30;24.20;;;25.20;49.30;;;;;;5033832;28;20464;-58
2021/09/20 11:44:54;;;;;;;23.80;22.77;;;25.00;50.30;;;;;;5033992;28;20448;-59
2021/09/20 11:47:25;;;;;;;24.23;23.13;;;25.20;49.90;;;;;;5033645;28;20869;-58
2021/09/20 11:50:02;;;;;;;24.07;23.00;;;25.20;50.70;;;;;;5033760;28;20446;-58
2021/09/20 11:52:33;;;;;;;22.60;21.53;;;25.10;49.70;;;;;;5033503;28;20483;-56
2021/09/20 11:55:00;;;;;;;23.00;22.10;;;24.90;51.00;;;;;;5033930;28;20429;-59
2021/09/20 11:57:30;;;;;;;23.50;22.40;;;25.20;50.20;;;;;;5033477;28;20446;-59
2021/09/20 11:59:59;;;;;;;23.13;22.13;;;25.40;49.60;;;;;;5033635;28;20449;-63
2021/09/20 12:02:32;;;;;;;24.47;23.20;;;25.70;49.80;;;;;;5033774;28;20444;-62
2021/09/20 12:04:59;;;;;;;24.63;23.53;;;25.20;50.60;;;;;;5033607;28;20452;-59
2021/09/20 12:07:28;;;;;;;22.57;21.67;;;24.90;51.00;;;;;;5033662;28;20445;-59
2021/09/20 12:09:56;;;;;;;23.80;22.70;;;24.70;50.60;;;;;;5033399;28;20468;-59
2021/09/20 12:12:27;;;;;;;24.63;23.47;;;24.50;50.90;;;;;;5033150;28;20481;-59
2021/09/20 12:14:56;;;;;;;24.53;23.33;;;24.70;51.00;;;;;;5033659;28;20425;-61
2021/09/20 12:17:23;;;;;;;25.40;24.20;;;24.40;51.10;;;;;;5033171;28;20485;-54
2021/09/20 12:19:54;;;;;;;24.90;23.60;;;23.90;50.90;;;;;;5033048;28;20441;-61
2021/09/20 12:22:20;;;;;;;23.93;22.90;;;23.60;51.40;;;;;;5033392;28;20432;-59
2021/09/20 12:24:47;;;;;;;24.10;23.00;;;23.60;52.40;;;;;;5033279;28;20453;-60
2021/09/20 12:27:14;;;;;;;24.27;23.27;;;23.30;53.40;;;;;;5033372;28;20464;-58
2021/09/20 12:29:41;;;;;;;24.27;22.87;;;23.20;53.20;;;;;;5032989;28;20845;-62
2021/09/20 12:32:07;;;;;;;22.77;21.73;;;23.30;52.80;;;;;;5032952;28;20487;-57
2021/09/20 12:34:35;;;;;;;23.23;22.13;;;22.80;53.40;;;;;;5032848;28;20934;-59